Time;durP1;ratioP1;P1;durP2;ratioP2;P2;SDS_P1;SDS_P2;PMS_P1;PMS_P2;Temp;Humidity;BMP_temperature;BMP_pressure;BME280_temperature;BME280_humidity;BME280_pressure;Samples;Min_cycle;Max_cycle;Signal;HPM_P1;HPM_P2
2024/01/12 00:00:31;;;;;;;6.60;5.97;;;15.40;51.40;;;;;;5113397;28;20695;-63
2024/01/12 00:02:57;;;;;;;6.10;5.50;;;15.40;51.40;;;;;;5113184;28;20253;-63
2024/01/12 00:05:22;;;;;;;5.85;5.25;;;15.40;51.40;;;;;;5113502;28;20184;-63
2024/01/12 00:07:48;;;;;;;5.75;5.25;;;15.30;51.30;;;;;;5113623;28;20177;-64
2024/01/12 00:10:13;;;;;;;6.57;5.75;;;15.30;51.30;;;;;;5112596;28;20210;-63
2024/01/12 00:12:39;;;;;;;5.97;5.47;;;15.30;51.40;;;;;;5113398;28;20188;-64
2024/01/12 00:15:05;;;;;;;5.82;5.28;;;15.30;51.40;;;;;;5113265;28;20215;-63
2024/01/12 00:17:31;;;;;;;6.20;5.63;;;15.30;51.40;;;;;;5112366;28;20653;-64
2024/01/12 00:19:56;;;;;;;6.07;5.47;;;15.30;51.40;;;;;;5113531;28;20252;-63
2024/01/12 00:22:22;;;;;;;6.32;5.80;;;15.20;51.30;;;;;;5113099;28;20172;-63
2024/01/12 00:24:48;;;;;;;5.85;5.35;;;15.20;51.30;;;;;;5112684;28;20173;-63
2024/01/12 00:27:14;;;;;;;6.53;5.70;;;15.20;51.40;;;;;;5113015;28;20177;-63
2024/01/12 00:29:40;;;;;;;6.07;5.47;;;15.20;51.40;;;;;;5112434;28;20177;-63
2024/01/12 00:32:05;;;;;;;5.65;5.10;;;15.20;51.40;;;;;;5113199;28;20726;-63
2024/01/12 00:34:31;;;;;;;5.68;5.18;;;15.20;51.30;;;;;;5112816;28;20211;-64
2024/01/12 00:36:57;;;;;;;6.15;5.55;;;15.20;51.40;;;;;;5112497;28;20192;-64
2024/01/12 00:39:22;;;;;;;5.57;5.07;;;15.20;51.40;;;;;;5112776;28;20547;-64
2024/01/12 00:41:50;;;;;;;6.03;5.43;;;15.10;51.40;;;;;;5113011;28;20641;-64
2024/01/12 00:44:18;;;;;;;6.70;5.65;;;15.10;51.30;;;;;;5111869;28;20181;-64
2024/01/12 00:46:44;;;;;;;5.90;5.32;;;15.10;51.40;;;;;;5112887;28;20655;-64
2024/01/12 00:49:10;;;;;;;6.10;5.50;;;15.10;51.40;;;;;;5112981;28;20256;-63
2024/01/12 00:51:35;;;;;;;5.57;5.07;;;15.10;51.40;;;;;;5111966;28;20298;-64
2024/01/12 00:54:01;;;;;;;6.00;5.40;;;15.10;51.30;;;;;;5112966;28;20635;-64
2024/01/12 00:56:26;;;;;;;5.82;5.32;;;15.10;51.40;;;;;;5112557;28;20204;-63
2024/01/12 00:58:52;;;;;;;5.60;5.10;;;15.10;51.40;;;;;;5111935;28;20235;-63
2024/01/12 01:01:18;;;;;;;6.15;5.55;;;15.00;51.30;;;;;;5112561;28;20184;-63
2024/01/12 01:03:43;;;;;;;5.72;5.22;;;15.00;51.30;;;;;;5112846;28;20181;-63
2024/01/12 01:06:09;;;;;;;5.57;5.07;;;15.00;51.40;;;;;;5112025;28;20635;-63
2024/01/12 01:08:34;;;;;;;6.20;5.60;;;15.00;51.30;;;;;;5112372;28;20527;-63
2024/01/12 01:11:00;;;;;;;5.80;5.30;;;15.00;51.40;;;;;;5112623;28;20181;-63
2024/01/12 01:13:25;;;;;;;6.13;5.53;;;15.00;51.40;;;;;;5111430;28;20670;-63
2024/01/12 01:15:51;;;;;;;6.18;5.57;;;15.00;51.40;;;;;;5112627;28;20659;-63
2024/01/12 01:18:17;;;;;;;5.80;5.30;;;15.00;51.30;;;;;;5112282;28;20237;-63
2024/01/12 01:20:43;;;;;;;6.43;5.32;;;15.00;51.40;;;;;;5111795;28;20177;-64
2024/01/12 01:23:08;;;;;;;5.65;5.15;;;15.00;51.40;;;;;;5112436;28;20165;-63
2024/01/12 01:25:36;;;;;;;5.88;5.28;;;14.90;51.30;;;;;;5112023;28;20177;-63
2024/01/12 01:28:02;;;;;;;5.72;5.22;;;14.90;51.40;;;;;;5111704;28;20215;-63
2024/01/12 01:30:27;;;;;;;5.30;4.85;;;14.90;51.30;;;;;;5112303;28;20659;-63
2024/01/12 01:32:53;;;;;;;5.10;4.60;;;14.90;51.40;;;;;;5111808;28;20175;-64
2024/01/12 01:35:18;;;;;;;5.10;4.70;;;14.90;51.50;;;;;;5111985;28;20543;-63
2024/01/12 01:37:44;;;;;;;5.82;5.20;;;14.90;51.40;;;;;;5112386;28;20260;-64
2024/01/12 01:40:10;;;;;;;5.35;4.85;;;14.90;51.40;;;;;;5111639;28;20259;-64
2024/01/12 01:42:35;;;;;;;4.97;4.50;;;14.90;51.40;;;;;;5111845;28;20636;-63
2024/01/12 01:45:02;;;;;;;4.97;4.57;;;14.90;51.40;;;;;;5115799;28;20222;-63
2024/01/12 01:47:27;;;;;;;5.28;4.82;;;14.90;51.40;;;;;;5115453;28;20264;-63
2024/01/12 01:49:53;;;;;;;6.53;4.85;;;14.80;51.30;;;;;;5098224;28;20260;-63
2024/01/12 01:52:20;;;;;;;5.47;4.97;;;14.80;51.40;;;;;;5097756;28;20169;-63
2024/01/12 01:54:46;;;;;;;5.47;4.80;;;14.80;51.40;;;;;;5115450;28;20204;-63
2024/01/12 01:57:11;;;;;;;5.32;4.82;;;14.80;51.40;;;;;;5080747;28;20301;-64
2024/01/12 01:59:37;;;;;;;5.20;4.80;;;14.80;51.40;;;;;;5115966;28;20173;-62
2024/01/12 02:02:03;;;;;;;5.07;4.57;;;14.80;51.40;;;;;;5080452;28;20173;-63
2024/01/12 02:04:29;;;;;;;5.13;4.60;;;14.80;51.40;;;;;;5115848;28;20200;-63
2024/01/12 02:06:54;;;;;;;5.18;4.68;;;14.80;51.40;;;;;;5097959;28;20215;-63
2024/01/12 02:09:20;;;;;;;5.38;4.88;;;14.80;51.50;;;;;;5114913;28;20173;-63
2024/01/12 02:11:45;;;;;;;5.60;5.10;;;14.80;51.40;;;;;;5097613;28;20165;-63
2024/01/12 02:14:11;;;;;;;5.07;4.57;;;14.70;51.40;;;;;;5115793;28;20183;-63
2024/01/12 02:16:36;;;;;;;5.32;4.43;;;14.70;51.40;;;;;;5114648;28;20303;-63
2024/01/12 02:19:02;;;;;;;4.90;4.40;;;14.70;51.50;;;;;;5115886;28;20270;-63
2024/01/12 02:21:31;;;;;;;5.07;4.57;;;14.70;51.50;;;;;;5115490;28;20352;-63
2024/01/12 02:23:57;;;;;;;5.03;4.35;;;14.70;51.50;;;;;;5115002;28;20169;-63
2024/01/12 02:26:22;;;;;;;4.85;4.43;;;14.70;51.50;;;;;;5115320;28;20264;-66
2024/01/12 02:28:48;;;;;;;4.65;4.25;;;14.70;51.50;;;;;;5115853;28;20183;-63
2024/01/12 02:31:15;;;;;;;5.10;4.47;;;14.70;51.50;;;;;;5079933;28;20526;-63
2024/01/12 02:33:40;;;;;;;5.35;4.80;;;14.70;51.50;;;;;;5115784;28;20252;-64
2024/01/12 02:36:07;;;;;;;5.43;4.75;;;14.70;51.50;;;;;;5115509;28;20295;-63
2024/01/12 02:38:33;;;;;;;4.65;4.20;;;14.70;51.50;;;;;;5114419;28;20588;-63
2024/01/12 02:40:58;;;;;;;4.70;4.30;;;14.60;51.40;;;;;;5115269;28;20184;-63
2024/01/12 02:43:24;;;;;;;4.72;4.00;;;14.60;51.40;;;;;;5114519;28;20176;-64
2024/01/12 02:45:49;;;;;;;5.07;4.45;;;14.70;51.50;;;;;;5115379;28;20173;-63
2024/01/12 02:48:15;;;;;;;4.93;4.43;;;14.60;51.40;;;;;;5114861;28;20173;-63
2024/01/12 02:50:40;;;;;;;4.47;4.07;;;14.60;51.50;;;;;;5114523;28;20177;-63
2024/01/12 02:53:06;;;;;;;3.90;3.60;;;14.60;51.50;;;;;;5115157;28;20170;-64
2024/01/12 02:55:31;;;;;;;4.65;4.25;;;14.60;51.50;;;;;;5113200;28;20212;-63
2024/01/12 02:57:57;;;;;;;4.88;4.40;;;14.60;51.50;;;;;;5114358;28;20209;-63
2024/01/12 03:00:22;;;;;;;4.40;4.00;;;14.60;51.50;;;;;;5114853;28;20181;-63
2024/01/12 03:02:48;;;;;;;4.28;3.88;;;14.60;51.50;;;;;;5115034;28;20165;-63
2024/01/12 03:05:13;;;;;;;4.65;4.15;;;14.60;51.50;;;;;;5114125;28;20217;-63
2024/01/12 03:07:39;;;;;;;4.30;3.90;;;14.60;51.50;;;;;;5114785;28;20571;-63
2024/01/12 03:10:05;;;;;;;4.50;4.07;;;14.60;51.50;;;;;;5114701;28;20179;-63
2024/01/12 03:12:33;;;;;;;3.95;3.65;;;14.50;51.50;;;;;;5113929;28;20184;-63
2024/01/12 03:14:59;;;;;;;4.45;3.65;;;14.50;52.20;;;;;;5114802;28;20669;-63
2024/01/12 03:17:25;;;;;;;4.10;3.70;;;14.50;51.50;;;;;;5114275;28;20255;-63
2024/01/12 03:19:50;;;;;;;4.63;4.22;;;14.50;51.50;;;;;;5113932;28;20230;-63
2024/01/12 03:22:16;;;;;;;3.95;3.55;;;14.50;51.50;;;;;;5114248;28;20182;-63
2024/01/12 03:24:41;;;;;;;4.40;4.00;;;14.50;51.50;;;;;;5114426;28;20218;-63
2024/01/12 03:27:07;;;;;;;4.85;3.90;;;14.50;51.60;;;;;;5113992;28;20238;-62
2024/01/12 03:29:32;;;;;;;4.70;4.30;;;14.50;52.20;;;;;;5114069;28;20585;-63
2024/01/12 03:31:58;;;;;;;4.18;3.78;;;14.50;51.60;;;;;;5114523;28;20271;-63
2024/01/12 03:34:23;;;;;;;4.60;4.22;;;14.50;51.60;;;;;;5113306;28;20165;-64
2024/01/12 03:36:49;;;;;;;4.50;4.10;;;14.40;51.50;;;;;;5114292;28;20173;-64
2024/01/12 03:39:15;;;;;;;4.70;4.10;;;14.40;51.50;;;;;;5113851;28;20656;-64
2024/01/12 03:41:40;;;;;;;5.00;3.85;;;14.40;51.50;;;;;;5113688;28;20624;-64
2024/01/12 03:44:06;;;;;;;5.15;4.30;;;14.40;51.50;;;;;;5114269;28;20173;-64
2024/01/12 03:46:31;;;;;;;4.07;3.67;;;14.40;51.60;;;;;;5113131;28;20545;-63
2024/01/12 03:48:57;;;;;;;4.40;4.00;;;14.40;51.60;;;;;;5114025;28;20743;-63
2024/01/12 03:51:22;;;;;;;4.25;3.70;;;14.40;51.60;;;;;;5113703;28;20256;-63
2024/01/12 03:53:48;;;;;;;4.80;3.90;;;14.40;51.60;;;;;;5113209;28;20679;-64
2024/01/12 03:56:13;;;;;;;3.80;3.47;;;14.40;51.60;;;;;;5113961;28;20265;-64
2024/01/12 03:58:39;;;;;;;4.05;3.65;;;14.40;51.60;;;;;;5113702;28;20221;-63
2024/01/12 04:01:07;;;;;;;4.35;3.90;;;14.40;51.60;;;;;;5113302;28;20611;-63
2024/01/12 04:03:33;;;;;;;4.95;4.40;;;14.30;51.60;;;;;;5113464;28;20171;-63
2024/01/12 04:05:59;;;;;;;4.00;3.60;;;14.40;51.70;;;;;;5113343;28;20177;-63
2024/01/12 04:08:25;;;;;;;4.30;3.90;;;14.30;51.70;;;;;;5112502;28;20253;-64
2024/01/12 04:10:50;;;;;;;5.10;4.60;;;14.30;51.60;;;;;;5113896;28;20256;-63
2024/01/12 04:13:16;;;;;;;3.58;3.28;;;14.30;51.60;;;;;;5113259;28;20162;-64
2024/01/12 04:15:41;;;;;;;4.35;3.72;;;14.30;51.70;;;;;;5112628;28;20220;-63
2024/01/12 04:18:07;;;;;;;4.82;3.75;;;14.30;51.70;;;;;;5113424;28;20197;-64
2024/01/12 04:20:32;;;;;;;3.53;3.20;;;14.30;51.70;;;;;;5113182;28;20265;-64
2024/01/12 04:22:58;;;;;;;4.30;3.90;;;14.30;51.70;;;;;;5112587;28;20623;-63
2024/01/12 04:25:23;;;;;;;3.95;3.45;;;14.30;51.70;;;;;;5112921;28;20181;-63
2024/01/12 04:27:49;;;;;;;4.53;3.30;;;14.30;51.70;;;;;;5113385;28;20169;-63
2024/01/12 04:30:14;;;;;;;4.10;3.70;;;14.30;51.70;;;;;;5112333;28;20184;-64
2024/01/12 04:32:40;;;;;;;4.68;3.45;;;14.30;51.70;;;;;;5113379;28;20176;-64
2024/01/12 04:35:06;;;;;;;4.22;3.53;;;14.30;51.70;;;;;;5112964;28;20688;-63
2024/01/12 04:37:32;;;;;;;3.97;3.58;;;14.20;52.30;;;;;;5094050;28;20182;-65
2024/01/12 04:39:58;;;;;;;4.30;3.85;;;14.20;51.70;;;;;;5113256;28;20540;-64
2024/01/12 04:42:23;;;;;;;4.00;3.20;;;14.20;51.70;;;;;;5112896;28;20175;-63
2024/01/12 04:44:49;;;;;;;3.67;3.33;;;14.20;51.70;;;;;;5112376;28;20295;-64
2024/01/12 04:47:14;;;;;;;3.60;3.30;;;14.20;51.70;;;;;;5112752;28;20176;-63
2024/01/12 04:49:40;;;;;;;3.90;3.50;;;14.20;51.80;;;;;;5112905;28;20278;-64
2024/01/12 04:52:05;;;;;;;3.22;2.90;;;14.20;51.70;;;;;;5112106;28;20180;-64
2024/01/12 04:54:31;;;;;;;3.55;3.25;;;14.20;51.80;;;;;;5112647;28;20247;-64
2024/01/12 04:56:56;;;;;;;3.72;3.33;;;14.20;51.70;;;;;;5112146;28;20168;-64
2024/01/12 04:59:22;;;;;;;3.67;3.28;;;14.20;51.80;;;;;;5112581;28;20177;-63
2024/01/12 05:01:48;;;;;;;4.05;3.60;;;14.20;51.80;;;;;;5112710;28;20232;-63
2024/01/12 05:04:14;;;;;;;3.40;2.80;;;14.20;51.80;;;;;;5093615;28;20205;-63
2024/01/12 05:06:40;;;;;;;3.97;3.58;;;14.20;51.80;;;;;;5112557;28;20200;-63
2024/01/12 05:09:08;;;;;;;3.67;3.38;;;14.10;51.80;;;;;;5113097;28;20260;-63
2024/01/12 05:11:33;;;;;;;3.58;3.10;;;14.10;51.80;;;;;;5111459;28;20648;-64
2024/01/12 05:13:59;;;;;;;3.58;3.28;;;14.10;51.80;;;;;;5112455;28;20177;-63
2024/01/12 05:16:25;;;;;;;3.58;3.25;;;14.10;51.80;;;;;;5112159;28;20208;-63
2024/01/12 05:18:50;;;;;;;3.65;3.20;;;14.10;51.80;;;;;;5111079;28;20250;-63
2024/01/12 05:21:16;;;;;;;3.38;3.08;;;14.10;51.80;;;;;;5112038;28;20677;-63
2024/01/12 05:23:44;;;;;;;3.13;2.83;;;14.10;51.80;;;;;;5112680;28;20172;-63
2024/01/12 05:26:12;;;;;;;3.03;2.83;;;14.10;51.80;;;;;;5111633;28;20666;-62
2024/01/12 05:28:37;;;;;;;3.60;3.30;;;14.10;51.80;;;;;;5112279;28;20177;-63
2024/01/12 05:31:03;;;;;;;3.75;3.00;;;14.10;51.80;;;;;;5112498;28;20177;-63
2024/01/12 05:33:31;;;;;;;4.15;3.22;;;14.10;51.80;;;;;;5111376;28;20173;-63
2024/01/12 05:35:57;;;;;;;2.85;2.60;;;14.00;51.80;;;;;;5112250;28;20209;-63
2024/01/12 05:38:22;;;;;;;3.35;3.00;;;14.00;51.80;;;;;;5111971;28;20184;-63
2024/01/12 05:40:48;;;;;;;3.53;3.22;;;14.00;51.80;;;;;;5111615;28;20188;-63
2024/01/12 05:43:14;;;;;;;3.20;2.90;;;14.00;51.80;;;;;;5112468;28;20169;-64
2024/01/12 05:45:39;;;;;;;4.78;3.40;;;14.00;51.80;;;;;;5112297;28;20544;-63
2024/01/12 05:48:05;;;;;;;3.83;3.22;;;14.00;51.80;;;;;;5111603;28;20649;-63
2024/01/12 05:50:31;;;;;;;3.63;3.00;;;14.00;51.80;;;;;;5111758;28;20181;-63
2024/01/12 05:52:56;;;;;;;3.45;3.03;;;14.10;51.80;;;;;;5112395;28;20166;-63
2024/01/12 05:55:22;;;;;;;2.95;2.65;;;14.20;51.80;;;;;;5111274;28;20205;-64
2024/01/12 05:57:47;;;;;;;2.60;2.40;;;14.20;51.70;;;;;;5111944;28;20213;-63
2024/01/12 06:00:13;;;;;;;4.68;2.95;;;14.30;51.70;;;;;;5111391;28;20187;-63
2024/01/12 06:02:39;;;;;;;4.80;3.25;;;14.40;51.90;;;;;;5112069;28;20173;-63
2024/01/12 06:05:04;;;;;;;3.25;2.95;;;14.60;51.80;;;;;;5111993;28;20173;-63
2024/01/12 06:07:30;;;;;;;3.00;2.60;;;14.70;51.60;;;;;;5111317;28;20517;-64
2024/01/12 06:09:55;;;;;;;3.38;2.72;;;14.90;51.40;;;;;;5112185;28;20218;-63
2024/01/12 06:12:21;;;;;;;4.00;2.65;;;15.10;51.20;;;;;;5111800;28;20165;-63
2024/01/12 06:14:47;;;;;;;3.45;2.60;;;15.20;50.90;;;;;;5111354;28;20201;-64
2024/01/12 06:17:12;;;;;;;3.00;2.72;;;15.40;50.70;;;;;;5111989;28;20230;-63
2024/01/12 06:19:38;;;;;;;3.17;2.55;;;15.50;50.60;;;;;;5111567;28;20222;-63
2024/01/12 06:22:04;;;;;;;2.85;2.40;;;15.60;50.50;;;;;;5111546;28;20181;-63
2024/01/12 06:24:29;;;;;;;2.45;2.25;;;15.60;50.40;;;;;;5111845;28;20199;-63
2024/01/12 06:26:55;;;;;;;2.70;2.50;;;15.70;50.30;;;;;;5112202;28;20277;-63
2024/01/12 06:29:21;;;;;;;2.88;2.63;;;15.70;50.30;;;;;;5111696;28;20606;-63
2024/01/12 06:31:46;;;;;;;2.70;2.30;;;15.70;50.20;;;;;;5115653;28;20237;-63
2024/01/12 06:34:12;;;;;;;4.07;2.78;;;15.70;50.30;;;;;;5115573;28;20165;-63
2024/01/12 06:36:42;;;;;;;3.28;2.55;;;15.70;50.30;;;;;;5114556;28;20304;-63
2024/01/12 06:39:08;;;;;;;2.78;2.53;;;15.70;50.30;;;;;;5115672;28;20205;-64
2024/01/12 06:41:34;;;;;;;2.42;2.10;;;15.70;50.30;;;;;;5115210;28;20173;-63
2024/01/12 06:43:59;;;;;;;2.60;2.40;;;15.70;50.30;;;;;;5114588;28;20700;-63
2024/01/12 06:46:25;;;;;;;2.30;2.10;;;15.70;50.30;;;;;;5114981;28;20173;-63
2024/01/12 06:48:50;;;;;;;3.13;2.58;;;15.70;50.40;;;;;;5115254;28;20303;-63
2024/01/12 06:51:22;;;;;;;2.40;2.20;;;15.80;50.30;;;;;;5114354;28;20306;-63
2024/01/12 06:53:48;;;;;;;3.67;2.50;;;16.00;50.30;;;;;;5115258;28;20260;-64
2024/01/12 06:56:20;;;;;;;2.72;2.05;;;16.10;50.20;;;;;;5114912;28;20781;-64
2024/01/12 06:58:46;;;;;;;2.92;2.08;;;16.20;50.00;;;;;;5114161;28;20722;-63
2024/01/12 07:01:11;;;;;;;2.78;2.05;;;16.40;49.70;;;;;;5114870;28;20185;-63
2024/01/12 07:03:37;;;;;;;4.80;2.35;;;16.50;49.60;;;;;;5114165;28;20177;-63
2024/01/12 07:06:03;;;;;;;2.70;2.20;;;16.60;49.40;;;;;;5115166;28;20661;-63
2024/01/12 07:08:28;;;;;;;3.42;2.40;;;16.60;49.40;;;;;;5114620;28;20200;-63
2024/01/12 07:10:54;;;;;;;2.53;2.03;;;16.60;49.40;;;;;;5114077;28;20530;-63
2024/01/12 07:13:19;;;;;;;3.30;2.28;;;16.60;49.40;;;;;;5114559;28;20216;-64
2024/01/12 07:15:45;;;;;;;1.73;1.63;;;16.70;49.40;;;;;;5114616;28;20663;-63
2024/01/12 07:18:10;;;;;;;2.58;2.08;;;16.70;49.30;;;;;;5113955;28;20268;-63
2024/01/12 07:20:36;;;;;;;3.00;2.17;;;16.80;49.30;;;;;;5114487;28;20246;-63
2024/01/12 07:23:01;;;;;;;2.10;2.00;;;16.80;49.30;;;;;;5114729;28;20595;-63
2024/01/12 07:25:28;;;;;;;3.08;2.30;;;16.90;49.10;;;;;;5113470;28;20687;-63
2024/01/12 07:27:53;;;;;;;2.00;1.80;;;16.90;49.20;;;;;;5114576;28;20184;-63
2024/01/12 07:30:19;;;;;;;2.13;1.88;;;16.90;49.20;;;;;;5114089;28;20172;-63
2024/01/12 07:32:44;;;;;;;2.13;1.90;;;17.00;49.10;;;;;;5113689;28;20192;-64
2024/01/12 07:35:11;;;;;;;3.08;1.88;;;17.00;49.10;;;;;;5114228;28;20680;-64
2024/01/12 07:37:37;;;;;;;2.38;2.13;;;16.90;49.20;;;;;;5114067;28;20170;-64
2024/01/12 07:40:03;;;;;;;2.25;1.88;;;17.00;49.40;;;;;;5113647;28;20179;-63
2024/01/12 07:42:29;;;;;;;2.50;1.75;;;16.90;49.30;;;;;;5113204;28;20183;-64
2024/01/12 07:44:55;;;;;;;2.13;1.75;;;17.00;49.30;;;;;;5114084;28;20169;-64
2024/01/12 07:47:20;;;;;;;2.67;2.08;;;17.00;49.20;;;;;;5113289;28;20226;-63
2024/01/12 07:49:46;;;;;;;2.38;1.83;;;17.10;49.20;;;;;;5114271;28;20539;-64
2024/01/12 07:52:11;;;;;;;3.08;2.20;;;17.00;49.20;;;;;;5114093;28;20628;-63
2024/01/12 07:54:37;;;;;;;2.30;2.13;;;17.10;49.30;;;;;;5112802;28;20224;-63
2024/01/12 07:57:02;;;;;;;2.65;2.00;;;17.00;49.20;;;;;;5113824;28;20181;-64
2024/01/12 07:59:28;;;;;;;2.10;1.83;;;17.20;49.20;;;;;;5113612;28;20268;-63
2024/01/12 08:01:54;;;;;;;2.03;1.90;;;17.20;49.20;;;;;;5112986;28;20178;-63
2024/01/12 08:04:20;;;;;;;2.40;2.10;;;17.20;49.20;;;;;;5113688;28;20694;-63
2024/01/12 08:06:46;;;;;;;1.95;1.75;;;17.20;49.20;;;;;;5113079;28;20173;-63
2024/01/12 08:09:13;;;;;;;2.40;2.15;;;17.10;49.20;;;;;;5113620;28;20298;-64
2024/01/12 08:11:39;;;;;;;2.45;2.10;;;17.10;49.20;;;;;;5113503;28;20178;-64
2024/01/12 08:14:05;;;;;;;2.30;1.63;;;17.20;49.30;;;;;;5112708;28;20184;-63
2024/01/12 08:16:31;;;;;;;3.47;2.58;;;17.20;49.20;;;;;;5113374;28;20240;-64
2024/01/12 08:18:56;;;;;;;2.10;1.60;;;17.20;49.20;;;;;;5113619;28;20177;-63
2024/01/12 08:21:22;;;;;;;2.13;1.83;;;17.20;49.20;;;;;;5112475;28;20306;-66
2024/01/12 08:23:48;;;;;;;2.90;2.10;;;17.20;49.30;;;;;;5113473;28;20176;-64
2024/01/12 08:26:13;;;;;;;1.75;1.60;;;17.20;49.30;;;;;;5113592;28;20180;-65
2024/01/12 08:28:39;;;;;;;2.38;1.90;;;17.20;49.30;;;;;;5112526;28;20768;-65
2024/01/12 08:31:05;;;;;;;2.28;1.77;;;17.20;49.30;;;;;;5113640;28;20177;-65
2024/01/12 08:33:33;;;;;;;2.70;1.77;;;17.10;49.40;;;;;;5113031;28;20172;-64
2024/01/12 08:35:58;;;;;;;2.10;1.80;;;17.20;49.50;;;;;;5112594;28;20212;-64
2024/01/12 08:38:24;;;;;;;2.22;1.85;;;17.20;49.50;;;;;;5112919;28;20180;-64
2024/01/12 08:40:49;;;;;;;2.45;1.63;;;17.10;49.50;;;;;;5113147;28;20169;-64
2024/01/12 08:43:16;;;;;;;2.72;1.73;;;17.20;49.40;;;;;;5093251;28;20568;-64
2024/01/12 08:45:42;;;;;;;3.22;2.13;;;17.20;49.50;;;;;;5113217;28;20545;-64
2024/01/12 08:48:08;;;;;;;3.05;1.80;;;17.20;49.50;;;;;;5112822;28;20736;-64
2024/01/12 08:50:34;;;;;;;1.73;1.50;;;17.10;49.50;;;;;;5112039;28;20187;-64
2024/01/12 08:52:59;;;;;;;1.75;1.52;;;17.10;49.60;;;;;;5112972;28;20185;-65
2024/01/12 08:55:25;;;;;;;2.15;1.50;;;17.00;49.60;;;;;;5112447;28;20671;-64
2024/01/12 08:57:52;;;;;;;2.15;1.65;;;16.90;49.70;;;;;;5111822;28;20228;-64
2024/01/12 09:00:17;;;;;;;1.50;1.30;;;16.90;49.90;;;;;;5112627;28;20173;-63
2024/01/12 09:02:43;;;;;;;2.20;1.60;;;16.80;50.00;;;;;;5112714;28;20235;-63
2024/01/12 09:05:09;;;;;;;3.03;1.98;;;16.80;50.00;;;;;;5112153;28;20200;-63
2024/01/12 09:07:34;;;;;;;2.00;1.80;;;16.70;50.10;;;;;;5112403;28;20577;-63
2024/01/12 09:10:01;;;;;;;2.65;1.73;;;16.70;50.20;;;;;;5112634;28;20172;-64
2024/01/12 09:12:26;;;;;;;2.20;1.70;;;16.70;50.30;;;;;;5111882;28;20177;-64
2024/01/12 09:14:52;;;;;;;2.25;1.88;;;16.70;50.30;;;;;;5112733;28;20235;-64
2024/01/12 09:17:18;;;;;;;2.50;1.63;;;16.70;50.20;;;;;;5111631;28;20230;-64
2024/01/12 09:19:43;;;;;;;1.52;1.40;;;16.70;50.30;;;;;;5112561;28;20531;-63
2024/01/12 09:22:09;;;;;;;2.40;1.45;;;16.70;50.30;;;;;;5112579;28;20171;-62
2024/01/12 09:24:35;;;;;;;4.35;1.95;;;16.70;50.90;;;;;;5111429;28;20185;-62
2024/01/12 09:27:00;;;;;;;3.20;1.77;;;16.70;50.20;;;;;;5112354;28;20335;-63
2024/01/12 09:29:26;;;;;;;2.80;1.88;;;17.20;50.40;;;;;;5093265;28;20185;-63
2024/01/12 09:31:51;;;;;;;1.80;1.48;;;16.70;50.20;;;;;;5075765;28;20257;-63
2024/01/12 09:34:17;;;;;;;2.70;1.73;;;16.70;50.10;;;;;;5088985;28;20201;-64
2024/01/12 09:36:42;;;;;;;4.13;2.00;;;16.70;50.10;;;;;;5088658;28;20300;-64
2024/01/12 09:39:14;;;;;;;2.78;1.98;;;16.80;50.10;;;;;;5071176;28;20280;-63
2024/01/12 09:41:47;;;;;;;3.33;1.90;;;16.80;50.00;;;;;;5071721;28;20187;-64
2024/01/12 09:44:13;;;;;;;2.20;2.00;;;16.80;50.00;;;;;;5071485;28;20179;-63
2024/01/12 09:46:50;;;;;;;3.30;2.20;;;16.70;50.00;;;;;;5053078;28;20174;-63
2024/01/12 09:49:15;;;;;;;2.22;1.88;;;16.80;49.90;;;;;;5054056;28;20169;-64
2024/01/12 09:51:41;;;;;;;2.38;1.50;;;16.80;49.90;;;;;;5053802;28;20179;-63
2024/01/12 09:54:06;;;;;;;3.58;2.15;;;16.80;49.90;;;;;;5070756;28;20166;-63
2024/01/12 09:56:32;;;;;;;3.33;2.17;;;16.80;49.90;;;;;;5071481;28;20208;-63
2024/01/12 09:58:58;;;;;;;4.13;1.85;;;16.80;49.80;;;;;;5088790;28;20232;-63
2024/01/12 10:01:23;;;;;;;3.55;2.25;;;16.80;49.90;;;;;;5072678;28;20223;-63
2024/01/12 10:03:49;;;;;;;3.60;2.38;;;16.80;49.90;;;;;;5068454;28;20188;-63
2024/01/12 10:06:14;;;;;;;2.92;1.92;;;16.80;49.80;;;;;;5077252;28;20178;-63
2024/01/12 10:08:40;;;;;;;3.13;1.85;;;16.80;49.80;;;;;;5094948;28;20174;-63
2024/01/12 10:11:06;;;;;;;4.40;2.20;;;16.80;49.90;;;;;;5095756;28;20522;-63
2024/01/12 10:13:31;;;;;;;2.35;1.98;;;16.70;49.80;;;;;;5094467;28;20169;-63
2024/01/12 10:15:57;;;;;;;3.13;2.10;;;16.80;49.80;;;;;;5095520;28;20218;-63
2024/01/12 10:18:22;;;;;;;2.58;1.98;;;16.80;49.80;;;;;;5094945;28;20211;-64
2024/01/12 10:20:48;;;;;;;3.50;2.20;;;16.80;49.90;;;;;;5094551;28;20193;-63
2024/01/12 10:23:19;;;;;;;3.58;2.08;;;16.80;49.90;;;;;;5076785;28;20181;-62
2024/01/12 10:25:55;;;;;;;3.60;2.08;;;16.80;49.90;;;;;;5095718;28;20265;-63
2024/01/12 10:28:20;;;;;;;3.42;1.95;;;16.80;50.00;;;;;;5077750;28;20240;-67
2024/01/12 10:30:48;;;;;;;2.08;1.75;;;16.80;50.00;;;;;;5095391;28;20178;-64
2024/01/12 10:33:16;;;;;;;2.17;1.75;;;16.80;50.00;;;;;;5077389;28;20201;-64
2024/01/12 10:35:41;;;;;;;2.58;1.48;;;16.80;50.10;;;;;;5076333;28;20778;-64
2024/01/12 10:38:07;;;;;;;2.30;2.08;;;16.80;50.00;;;;;;5060079;28;20253;-64
2024/01/12 10:40:33;;;;;;;2.05;1.60;;;16.80;50.00;;;;;;5076615;28;20987;-64
2024/01/12 10:42:58;;;;;;;2.58;1.50;;;16.80;50.10;;;;;;5076019;28;20189;-64
2024/01/12 10:45:25;;;;;;;2.38;1.50;;;16.80;50.10;;;;;;5076565;28;20181;-64
2024/01/12 10:48:10;;;;;;;2.67;1.58;;;16.80;50.10;;;;;;5094919;28;20193;-63
2024/01/12 10:50:40;;;;;;;2.08;1.60;;;16.80;50.10;;;;;;5076024;28;20162;-64
2024/01/12 10:53:17;;;;;;;2.17;1.70;;;16.80;50.10;;;;;;5077407;28;20173;-64
2024/01/12 10:55:48;;;;;;;2.42;1.88;;;16.80;50.20;;;;;;5094071;28;20223;-64
2024/01/12 10:58:14;;;;;;;3.22;1.92;;;16.70;50.20;;;;;;5075863;28;20225;-63
2024/01/12 11:00:40;;;;;;;2.83;1.33;;;16.70;50.30;;;;;;5076770;28;20180;-63
2024/01/12 11:03:05;;;;;;;1.90;1.50;;;16.60;50.40;;;;;;5075748;28;20166;-63
2024/01/12 11:05:32;;;;;;;1.92;1.73;;;16.60;50.50;;;;;;5076169;28;20186;-63
2024/01/12 11:07:58;;;;;;;2.10;1.65;;;16.60;50.60;;;;;;5094638;28;20174;-63
2024/01/12 11:10:25;;;;;;;1.45;1.27;;;16.50;50.70;;;;;;5106030;28;20184;-63
2024/01/12 11:12:52;;;;;;;2.97;1.88;;;16.50;50.70;;;;;;5096486;28;20186;-64
2024/01/12 11:15:18;;;;;;;2.17;1.50;;;16.50;50.70;;;;;;5095954;28;20659;-63
2024/01/12 11:17:43;;;;;;;3.47;1.60;;;16.50;50.70;;;;;;5095130;28;20229;-64
2024/01/12 11:20:12;;;;;;;1.90;1.42;;;16.50;50.70;;;;;;5096651;28;20212;-64
2024/01/12 11:22:38;;;;;;;2.20;1.48;;;16.60;50.70;;;;;;5114442;28;20181;-63
2024/01/12 11:25:05;;;;;;;2.17;1.42;;;16.50;50.70;;;;;;5113707;28;20635;-63
2024/01/12 11:27:34;;;;;;;2.20;1.80;;;16.50;50.70;;;;;;5096053;28;20181;-63
2024/01/12 11:30:01;;;;;;;2.50;1.70;;;16.50;50.70;;;;;;5114310;28;20173;-64
2024/01/12 11:32:28;;;;;;;3.20;1.60;;;16.50;51.40;;;;;;5113698;28;20177;-63
2024/01/12 11:34:53;;;;;;;5.63;1.65;;;16.40;50.80;;;;;;5114514;28;20181;-64
2024/01/12 11:37:19;;;;;;;5.15;1.65;;;16.40;51.00;;;;;;5078767;28;20292;-63
2024/01/12 11:39:44;;;;;;;2.83;1.73;;;16.30;51.10;;;;;;5078577;28;20605;-64
2024/01/12 11:42:10;;;;;;;2.65;1.55;;;16.30;51.20;;;;;;5079021;28;20256;-64
2024/01/12 11:44:36;;;;;;;2.75;1.35;;;16.30;51.20;;;;;;5095851;28;20584;-64
2024/01/12 11:47:07;;;;;;;5.22;1.73;;;16.40;51.20;;;;;;5113686;28;20177;-64
2024/01/12 11:49:34;;;;;;;2.25;1.58;;;16.40;51.20;;;;;;5113909;28;20177;-64
2024/01/12 11:52:04;;;;;;;2.00;1.27;;;16.40;51.30;;;;;;5113408;28;20246;-64
2024/01/12 11:54:29;;;;;;;4.88;1.45;;;16.40;51.20;;;;;;5113409;28;20180;-64
2024/01/12 11:56:56;;;;;;;2.67;1.35;;;16.40;51.20;;;;;;5113732;28;20291;-64
2024/01/12 11:59:21;;;;;;;2.70;1.58;;;16.40;51.20;;;;;;5112887;28;20607;-63
2024/01/12 12:01:47;;;;;;;1.77;1.38;;;16.40;51.20;;;;;;5113850;28;20260;-64
2024/01/12 12:04:16;;;;;;;4.82;1.40;;;16.40;51.30;;;;;;5113856;28;20268;-63
2024/01/12 12:06:44;;;;;;;3.95;1.30;;;16.30;51.40;;;;;;5113149;28;20185;-60
2024/01/12 12:09:10;;;;;;;5.65;1.80;;;16.30;51.60;;;;;;5113764;28;20188;-65
2024/01/12 12:11:35;;;;;;;6.30;1.88;;;16.20;51.70;;;;;;5113291;28;20177;-65
2024/01/12 12:14:01;;;;;;;3.30;1.60;;;16.20;51.80;;;;;;5113096;28;20169;-65
2024/01/12 12:16:27;;;;;;;1.50;1.25;;;16.20;51.80;;;;;;5113328;28;20257;-66
2024/01/12 12:18:52;;;;;;;4.22;1.60;;;16.20;51.80;;;;;;5113515;28;20222;-65
2024/01/12 12:21:18;;;;;;;3.92;1.60;;;16.30;51.80;;;;;;5112363;28;20177;-66
2024/01/12 12:23:43;;;;;;;5.95;2.20;;;16.30;51.70;;;;;;5113301;28;20173;-66
2024/01/12 12:26:10;;;;;;;4.75;1.40;;;16.30;51.70;;;;;;5095166;28;20177;-66
2024/01/12 12:28:36;;;;;;;3.22;1.58;;;16.30;51.80;;;;;;5094346;28;20176;-68
2024/01/12 12:31:02;;;;;;;3.72;1.58;;;16.30;51.80;;;;;;5113523;28;20569;-67
2024/01/12 12:33:27;;;;;;;2.53;1.63;;;16.20;51.90;;;;;;5112909;28;20624;-66
2024/01/12 12:36:11;;;;;;;3.75;1.92;;;16.20;51.90;;;;;;5112434;28;20220;-67
2024/01/12 12:38:37;;;;;;;3.67;1.67;;;16.20;52.00;;;;;;5094555;28;20169;-66
2024/01/12 12:41:06;;;;;;;3.45;1.50;;;16.20;52.10;;;;;;5112831;28;20184;-67